sensor_id;sensor_type;location;lat;lon;timestamp;P1;durP1;ratioP1;P2;durP2;ratioP2
7583;SDS011;3833;41.764;26.204;2023-01-31T00:00:19;26.53;;;16.33;;
7583;SDS011;3833;41.764;26.204;2023-01-31T00:02:46;24.17;;;16.43;;
7583;SDS011;3833;41.764;26.204;2023-01-31T00:05:13;23.27;;;17.20;;
7583;SDS011;3833;41.764;26.204;2023-01-31T00:07:40;23.03;;;16.13;;
7583;SDS011;3833;41.764;26.204;2023-01-31T00:10:07;24.67;;;16.83;;
7583;SDS011;3833;41.764;26.204;2023-01-31T00:12:35;25.43;;;15.73;;
7583;SDS011;3833;41.764;26.204;2023-01-31T00:15:02;20.87;;;15.60;;
7583;SDS011;3833;41.764;26.204;2023-01-31T00:17:31;20.70;;;15.37;;
7583;SDS011;3833;41.764;26.204;2023-01-31T00:19:57;25.53;;;15.77;;
7583;SDS011;3833;41.764;26.204;2023-01-31T00:22:24;24.57;;;15.40;;
7583;SDS011;3833;41.764;26.204;2023-01-31T00:24:51;24.30;;;16.30;;
7583;SDS011;3833;41.764;26.204;2023-01-31T00:27:18;24.13;;;15.83;;
7583;SDS011;3833;41.764;26.204;2023-01-31T00:29:45;22.50;;;15.40;;
7583;SDS011;3833;41.764;26.204;2023-01-31T00:32:12;22.67;;;15.83;;
7583;SDS011;3833;41.764;26.204;2023-01-31T00:34:40;22.77;;;15.43;;
7583;SDS011;3833;41.764;26.204;2023-01-31T00:37:07;22.97;;;16.17;;
7583;SDS011;3833;41.764;26.204;2023-01-31T00:39:33;23.67;;;15.57;;
7583;SDS011;3833;41.764;26.204;2023-01-31T00:42:00;22.67;;;16.27;;
7583;SDS011;3833;41.764;26.204;2023-01-31T00:44:27;20.73;;;14.23;;
7583;SDS011;3833;41.764;26.204;2023-01-31T00:46:54;23.60;;;16.30;;
7583;SDS011;3833;41.764;26.204;2023-01-31T00:49:21;22.67;;;15.40;;
7583;SDS011;3833;41.764;26.204;2023-01-31T00:51:49;23.83;;;15.70;;
7583;SDS011;3833;41.764;26.204;2023-01-31T00:54:16;23.93;;;14.93;;
7583;SDS011;3833;41.764;26.204;2023-01-31T00:56:43;24.13;;;15.77;;
7583;SDS011;3833;41.764;26.204;2023-01-31T00:59:10;23.03;;;15.70;;
7583;SDS011;3833;41.764;26.204;2023-01-31T01:01:37;23.13;;;16.33;;
7583;SDS011;3833;41.764;26.204;2023-01-31T01:04:04;23.40;;;16.30;;
7583;SDS011;3833;41.764;26.204;2023-01-31T01:06:31;24.80;;;15.30;;
7583;SDS011;3833;41.764;26.204;2023-01-31T01:08:59;21.07;;;14.23;;
7583;SDS011;3833;41.764;26.204;2023-01-31T01:11:27;26.40;;;16.23;;
7583;SDS011;3833;41.764;26.204;2023-01-31T01:13:57;22.27;;;15.07;;
7583;SDS011;3833;41.764;26.204;2023-01-31T01:16:25;26.57;;;17.70;;
7583;SDS011;3833;41.764;26.204;2023-01-31T01:18:55;21.70;;;15.10;;
7583;SDS011;3833;41.764;26.204;2023-01-31T01:21:23;23.07;;;15.20;;
7583;SDS011;3833;41.764;26.204;2023-01-31T01:23:51;23.93;;;16.13;;
7583;SDS011;3833;41.764;26.204;2023-01-31T01:26:20;25.77;;;16.30;;
7583;SDS011;3833;41.764;26.204;2023-01-31T01:28:49;22.83;;;15.43;;
7583;SDS011;3833;41.764;26.204;2023-01-31T01:31:16;24.17;;;15.60;;
7583;SDS011;3833;41.764;26.204;2023-01-31T01:33:45;21.07;;;15.90;;
7583;SDS011;3833;41.764;26.204;2023-01-31T01:36:13;25.03;;;16.20;;
7583;SDS011;3833;41.764;26.204;2023-01-31T01:38:42;25.07;;;15.60;;
7583;SDS011;3833;41.764;26.204;2023-01-31T01:41:10;22.97;;;15.67;;
7583;SDS011;3833;41.764;26.204;2023-01-31T01:43:39;23.90;;;15.87;;
7583;SDS011;3833;41.764;26.204;2023-01-31T01:46:07;24.13;;;16.27;;
7583;SDS011;3833;41.764;26.204;2023-01-31T01:48:37;24.37;;;14.87;;
7583;SDS011;3833;41.764;26.204;2023-01-31T01:51:05;21.50;;;15.57;;
7583;SDS011;3833;41.764;26.204;2023-01-31T01:53:33;26.17;;;17.37;;
7583;SDS011;3833;41.764;26.204;2023-01-31T01:56:05;24.50;;;16.30;;
7583;SDS011;3833;41.764;26.204;2023-01-31T01:58:35;23.40;;;15.47;;
7583;SDS011;3833;41.764;26.204;2023-01-31T02:01:09;27.83;;;16.70;;
7583;SDS011;3833;41.764;26.204;2023-01-31T02:03:41;25.17;;;15.97;;
7583;SDS011;3833;41.764;26.204;2023-01-31T02:06:10;23.33;;;16.77;;
7583;SDS011;3833;41.764;26.204;2023-01-31T02:08:38;22.67;;;14.87;;
7583;SDS011;3833;41.764;26.204;2023-01-31T02:11:09;22.37;;;15.90;;
7583;SDS011;3833;41.764;26.204;2023-01-31T02:13:42;22.63;;;15.83;;
7583;SDS011;3833;41.764;26.204;2023-01-31T02:16:12;22.57;;;15.30;;
7583;SDS011;3833;41.764;26.204;2023-01-31T02:18:38;22.07;;;14.77;;
7583;SDS011;3833;41.764;26.204;2023-01-31T02:24:47;21.87;;;14.77;;
7583;SDS011;3833;41.764;26.204;2023-01-31T02:33:54;23.73;;;15.20;;
7583;SDS011;3833;41.764;26.204;2023-01-31T02:36:29;20.17;;;14.00;;
7583;SDS011;3833;41.764;26.204;2023-01-31T02:39:06;19.00;;;14.20;;
7583;SDS011;3833;41.764;26.204;2023-01-31T02:41:42;20.97;;;14.43;;
7583;SDS011;3833;41.764;26.204;2023-01-31T02:44:18;19.43;;;14.47;;
7583;SDS011;3833;41.764;26.204;2023-01-31T02:47:09;25.83;;;15.30;;
7583;SDS011;3833;41.764;26.204;2023-01-31T02:49:45;20.73;;;15.20;;
7583;SDS011;3833;41.764;26.204;2023-01-31T02:52:17;23.17;;;14.90;;
7583;SDS011;3833;41.764;26.204;2023-01-31T02:54:53;20.87;;;14.53;;
7583;SDS011;3833;41.764;26.204;2023-01-31T02:57:43;21.70;;;13.97;;
7583;SDS011;3833;41.764;26.204;2023-01-31T03:00:12;23.47;;;14.47;;
7583;SDS011;3833;41.764;26.204;2023-01-31T03:02:40;21.43;;;15.07;;
7583;SDS011;3833;41.764;26.204;2023-01-31T03:05:10;22.77;;;14.10;;
7583;SDS011;3833;41.764;26.204;2023-01-31T03:07:40;20.30;;;14.07;;
7583;SDS011;3833;41.764;26.204;2023-01-31T03:10:13;24.47;;;15.57;;
7583;SDS011;3833;41.764;26.204;2023-01-31T03:12:47;22.50;;;14.40;;
7583;SDS011;3833;41.764;26.204;2023-01-31T03:18:38;20.00;;;12.70;;
7583;SDS011;3833;41.764;26.204;2023-01-31T03:21:15;17.73;;;13.87;;
7583;SDS011;3833;41.764;26.204;2023-01-31T03:23:47;18.47;;;14.67;;
7583;SDS011;3833;41.764;26.204;2023-01-31T03:26:17;22.07;;;14.50;;
7583;SDS011;3833;41.764;26.204;2023-01-31T03:28:45;19.87;;;14.13;;
7583;SDS011;3833;41.764;26.204;2023-01-31T03:31:19;20.70;;;13.27;;
7583;SDS011;3833;41.764;26.204;2023-01-31T03:33:50;20.10;;;14.17;;
7583;SDS011;3833;41.764;26.204;2023-01-31T03:36:25;21.80;;;14.37;;
7583;SDS011;3833;41.764;26.204;2023-01-31T03:38:57;19.10;;;14.00;;
7583;SDS011;3833;41.764;26.204;2023-01-31T03:41:36;23.10;;;14.53;;
7583;SDS011;3833;41.764;26.204;2023-01-31T03:44:11;20.13;;;14.47;;
7583;SDS011;3833;41.764;26.204;2023-01-31T03:46:45;22.10;;;14.57;;
7583;SDS011;3833;41.764;26.204;2023-01-31T03:49:16;18.97;;;12.97;;
7583;SDS011;3833;41.764;26.204;2023-01-31T03:51:49;18.43;;;13.27;;
7583;SDS011;3833;41.764;26.204;2023-01-31T03:54:20;18.40;;;13.47;;
7583;SDS011;3833;41.764;26.204;2023-01-31T03:56:51;19.77;;;13.33;;
7583;SDS011;3833;41.764;26.204;2023-01-31T03:59:23;18.63;;;13.57;;
7583;SDS011;3833;41.764;26.204;2023-01-31T04:01:53;26.37;;;18.67;;
7583;SDS011;3833;41.764;26.204;2023-01-31T04:04:24;35.80;;;24.03;;
7583;SDS011;3833;41.764;26.204;2023-01-31T04:06:55;28.63;;;20.47;;
7583;SDS011;3833;41.764;26.204;2023-01-31T04:09:22;30.00;;;19.73;;
7583;SDS011;3833;41.764;26.204;2023-01-31T04:11:49;26.70;;;19.87;;
7583;SDS011;3833;41.764;26.204;2023-01-31T04:14:17;28.57;;;19.90;;
7583;SDS011;3833;41.764;26.204;2023-01-31T04:16:44;31.57;;;20.90;;
7583;SDS011;3833;41.764;26.204;2023-01-31T04:19:11;28.43;;;20.53;;
7583;SDS011;3833;41.764;26.204;2023-01-31T04:21:37;29.07;;;19.17;;
7583;SDS011;3833;41.764;26.204;2023-01-31T04:24:06;26.53;;;19.73;;
7583;SDS011;3833;41.764;26.204;2023-01-31T04:26:34;28.33;;;19.90;;
7583;SDS011;3833;41.764;26.204;2023-01-31T04:29:01;35.13;;;24.40;;
7583;SDS011;3833;41.764;26.204;2023-01-31T04:31:29;34.60;;;23.10;;
7583;SDS011;3833;41.764;26.204;2023-01-31T04:33:56;32.83;;;22.23;;
7583;SDS011;3833;41.764;26.204;2023-01-31T04:36:24;29.67;;;21.47;;
7583;SDS011;3833;41.764;26.204;2023-01-31T04:38:51;30.17;;;20.03;;
7583;SDS011;3833;41.764;26.204;2023-01-31T04:41:19;45.20;;;31.27;;
7583;SDS011;3833;41.764;26.204;2023-01-31T04:43:46;39.73;;;27.93;;
7583;SDS011;3833;41.764;26.204;2023-01-31T04:46:13;33.53;;;23.10;;
7583;SDS011;3833;41.764;26.204;2023-01-31T04:48:40;37.03;;;24.37;;
7583;SDS011;3833;41.764;26.204;2023-01-31T04:51:06;37.40;;;22.80;;
7583;SDS011;3833;41.764;26.204;2023-01-31T04:53:33;31.43;;;22.07;;
7583;SDS011;3833;41.764;26.204;2023-01-31T04:56:00;67.70;;;45.87;;
7583;SDS011;3833;41.764;26.204;2023-01-31T04:58:28;57.33;;;40.13;;
7583;SDS011;3833;41.764;26.204;2023-01-31T05:00:55;60.50;;;41.97;;
7583;SDS011;3833;41.764;26.204;2023-01-31T05:03:22;49.37;;;33.93;;
7583;SDS011;3833;41.764;26.204;2023-01-31T05:05:50;39.27;;;28.90;;
7583;SDS011;3833;41.764;26.204;2023-01-31T05:08:17;39.93;;;27.93;;
7583;SDS011;3833;41.764;26.204;2023-01-31T05:10:43;34.70;;;25.17;;
7583;SDS011;3833;41.764;26.204;2023-01-31T05:13:10;25.77;;;17.23;;
7583;SDS011;3833;41.764;26.204;2023-01-31T05:15:40;22.53;;;15.97;;
7583;SDS011;3833;41.764;26.204;2023-01-31T05:18:07;20.57;;;14.70;;
7583;SDS011;3833;41.764;26.204;2023-01-31T05:20:35;18.90;;;13.53;;
7583;SDS011;3833;41.764;26.204;2023-01-31T05:23:04;20.87;;;13.57;;
7583;SDS011;3833;41.764;26.204;2023-01-31T05:25:33;20.07;;;13.80;;
7583;SDS011;3833;41.764;26.204;2023-01-31T05:28:00;19.70;;;13.27;;
7583;SDS011;3833;41.764;26.204;2023-01-31T05:30:27;22.83;;;13.90;;
7583;SDS011;3833;41.764;26.204;2023-01-31T05:32:55;23.60;;;14.50;;
7583;SDS011;3833;41.764;26.204;2023-01-31T05:35:22;20.17;;;13.43;;
7583;SDS011;3833;41.764;26.204;2023-01-31T05:37:49;20.37;;;13.80;;
7583;SDS011;3833;41.764;26.204;2023-01-31T05:40:18;21.33;;;13.03;;
7583;SDS011;3833;41.764;26.204;2023-01-31T05:42:46;20.50;;;13.40;;
7583;SDS011;3833;41.764;26.204;2023-01-31T05:45:18;20.73;;;13.00;;
7583;SDS011;3833;41.764;26.204;2023-01-31T05:47:46;20.67;;;14.00;;
7583;SDS011;3833;41.764;26.204;2023-01-31T05:50:14;20.60;;;13.63;;
7583;SDS011;3833;41.764;26.204;2023-01-31T05:52:41;19.00;;;13.23;;
7583;SDS011;3833;41.764;26.204;2023-01-31T05:55:08;19.97;;;13.13;;
7583;SDS011;3833;41.764;26.204;2023-01-31T05:57:35;17.67;;;12.10;;
7583;SDS011;3833;41.764;26.204;2023-01-31T06:00:02;20.13;;;12.67;;
7583;SDS011;3833;41.764;26.204;2023-01-31T06:02:30;17.77;;;12.27;;
7583;SDS011;3833;41.764;26.204;2023-01-31T06:04:57;17.93;;;11.57;;
7583;SDS011;3833;41.764;26.204;2023-01-31T06:07:25;18.60;;;12.23;;
7583;SDS011;3833;41.764;26.204;2023-01-31T06:09:52;17.03;;;12.50;;
7583;SDS011;3833;41.764;26.204;2023-01-31T06:12:19;17.43;;;12.00;;
7583;SDS011;3833;41.764;26.204;2023-01-31T06:14:46;15.97;;;12.17;;
7583;SDS011;3833;41.764;26.204;2023-01-31T06:17:13;17.40;;;12.60;;
7583;SDS011;3833;41.764;26.204;2023-01-31T06:19:40;16.90;;;12.13;;
7583;SDS011;3833;41.764;26.204;2023-01-31T06:22:07;17.70;;;12.23;;
7583;SDS011;3833;41.764;26.204;2023-01-31T06:24:35;16.87;;;12.50;;
7583;SDS011;3833;41.764;26.204;2023-01-31T06:27:02;17.70;;;11.60;;
7583;SDS011;3833;41.764;26.204;2023-01-31T06:29:29;21.20;;;12.30;;
7583;SDS011;3833;41.764;26.204;2023-01-31T06:31:56;18.40;;;12.03;;
7583;SDS011;3833;41.764;26.204;2023-01-31T06:34:23;17.00;;;11.93;;
7583;SDS011;3833;41.764;26.204;2023-01-31T06:36:50;25.63;;;16.97;;
7583;SDS011;3833;41.764;26.204;2023-01-31T06:39:16;31.77;;;22.20;;
7583;SDS011;3833;41.764;26.204;2023-01-31T06:41:45;29.43;;;20.93;;
7583;SDS011;3833;41.764;26.204;2023-01-31T06:44:12;33.43;;;22.37;;
7583;SDS011;3833;41.764;26.204;2023-01-31T06:46:39;36.60;;;26.27;;
7583;SDS011;3833;41.764;26.204;2023-01-31T06:49:07;39.40;;;32.80;;
7583;SDS011;3833;41.764;26.204;2023-01-31T06:51:33;35.87;;;27.47;;
7583;SDS011;3833;41.764;26.204;2023-01-31T06:54:00;34.50;;;24.77;;
7583;SDS011;3833;41.764;26.204;2023-01-31T06:56:27;37.37;;;28.87;;
7583;SDS011;3833;41.764;26.204;2023-01-31T06:58:56;34.00;;;23.60;;
7583;SDS011;3833;41.764;26.204;2023-01-31T07:01:22;30.60;;;23.50;;
7583;SDS011;3833;41.764;26.204;2023-01-31T07:03:50;31.43;;;22.27;;
7583;SDS011;3833;41.764;26.204;2023-01-31T07:06:17;34.17;;;26.20;;
7583;SDS011;3833;41.764;26.204;2023-01-31T07:08:45;36.00;;;24.97;;
7583;SDS011;3833;41.764;26.204;2023-01-31T07:11:12;31.13;;;22.23;;
7583;SDS011;3833;41.764;26.204;2023-01-31T07:13:39;28.67;;;20.43;;
7583;SDS011;3833;41.764;26.204;2023-01-31T07:16:08;23.13;;;18.53;;
7583;SDS011;3833;41.764;26.204;2023-01-31T07:18:34;17.10;;;13.80;;
7583;SDS011;3833;41.764;26.204;2023-01-31T07:21:01;13.07;;;10.57;;
7583;SDS011;3833;41.764;26.204;2023-01-31T07:23:28;15.23;;;12.03;;
7583;SDS011;3833;41.764;26.204;2023-01-31T07:25:55;14.10;;;12.30;;
7583;SDS011;3833;41.764;26.204;2023-01-31T07:28:22;14.53;;;11.80;;
7583;SDS011;3833;41.764;26.204;2023-01-31T07:30:49;25.47;;;22.07;;
7583;SDS011;3833;41.764;26.204;2023-01-31T07:33:17;40.70;;;36.37;;
7583;SDS011;3833;41.764;26.204;2023-01-31T07:35:44;36.20;;;33.60;;
7583;SDS011;3833;41.764;26.204;2023-01-31T07:38:11;31.60;;;29.00;;
7583;SDS011;3833;41.764;26.204;2023-01-31T07:40:38;38.87;;;35.93;;
7583;SDS011;3833;41.764;26.204;2023-01-31T07:43:05;32.63;;;30.27;;
7583;SDS011;3833;41.764;26.204;2023-01-31T07:45:32;34.70;;;32.47;;
7583;SDS011;3833;41.764;26.204;2023-01-31T07:47:59;40.43;;;37.87;;
7583;SDS011;3833;41.764;26.204;2023-01-31T07:50:27;44.10;;;41.50;;
7583;SDS011;3833;41.764;26.204;2023-01-31T07:52:55;50.90;;;48.00;;
7583;SDS011;3833;41.764;26.204;2023-01-31T07:55:23;53.80;;;50.73;;
7583;SDS011;3833;41.764;26.204;2023-01-31T07:57:50;52.87;;;49.97;;
7583;SDS011;3833;41.764;26.204;2023-01-31T08:00:17;53.03;;;49.93;;
7583;SDS011;3833;41.764;26.204;2023-01-31T08:03:02;55.67;;;52.57;;
7583;SDS011;3833;41.764;26.204;2023-01-31T08:05:48;54.97;;;51.63;;
7583;SDS011;3833;41.764;26.204;2023-01-31T08:08:15;41.57;;;39.07;;
7583;SDS011;3833;41.764;26.204;2023-01-31T08:10:42;53.37;;;50.57;;
7583;SDS011;3833;41.764;26.204;2023-01-31T08:13:11;42.03;;;39.53;;
7583;SDS011;3833;41.764;26.204;2023-01-31T08:15:38;44.17;;;41.67;;
7583;SDS011;3833;41.764;26.204;2023-01-31T08:18:05;55.83;;;52.73;;
7583;SDS011;3833;41.764;26.204;2023-01-31T08:20:31;52.63;;;49.70;;
7583;SDS011;3833;41.764;26.204;2023-01-31T08:23:00;42.53;;;39.97;;
7583;SDS011;3833;41.764;26.204;2023-01-31T08:25:27;53.70;;;50.67;;
7583;SDS011;3833;41.764;26.204;2023-01-31T08:27:57;51.33;;;48.40;;
7583;SDS011;3833;41.764;26.204;2023-01-31T08:30:25;30.27;;;27.97;;
7583;SDS011;3833;41.764;26.204;2023-01-31T08:32:52;27.97;;;25.97;;
7583;SDS011;3833;41.764;26.204;2023-01-31T08:35:18;29.00;;;27.00;;
7583;SDS011;3833;41.764;26.204;2023-01-31T08:37:45;30.77;;;28.73;;
7583;SDS011;3833;41.764;26.204;2023-01-31T08:40:14;50.20;;;47.30;;
7583;SDS011;3833;41.764;26.204;2023-01-31T08:42:41;54.97;;;51.97;;
7583;SDS011;3833;41.764;26.204;2023-01-31T08:45:08;59.17;;;55.93;;
7583;SDS011;3833;41.764;26.204;2023-01-31T08:47:35;54.43;;;51.43;;
7583;SDS011;3833;41.764;26.204;2023-01-31T08:50:03;57.53;;;54.43;;
7583;SDS011;3833;41.764;26.204;2023-01-31T08:52:32;57.57;;;54.47;;
7583;SDS011;3833;41.764;26.204;2023-01-31T08:54:59;56.53;;;53.43;;
7583;SDS011;3833;41.764;26.204;2023-01-31T08:57:28;53.40;;;50.53;;
7583;SDS011;3833;41.764;26.204;2023-01-31T08:59:55;57.03;;;54.00;;
7583;SDS011;3833;41.764;26.204;2023-01-31T09:02:21;59.23;;;55.60;;
7583;SDS011;3833;41.764;26.204;2023-01-31T09:04:48;57.97;;;54.33;;
7583;SDS011;3833;41.764;26.204;2023-01-31T09:07:15;62.83;;;58.80;;
7583;SDS011;3833;41.764;26.204;2023-01-31T09:09:45;58.77;;;55.27;;
7583;SDS011;3833;41.764;26.204;2023-01-31T09:12:13;52.73;;;49.03;;
7583;SDS011;3833;41.764;26.204;2023-01-31T09:14:41;46.50;;;43.97;;
7583;SDS011;3833;41.764;26.204;2023-01-31T09:17:08;46.97;;;43.90;;
7583;SDS011;3833;41.764;26.204;2023-01-31T09:19:35;48.53;;;45.67;;
7583;SDS011;3833;41.764;26.204;2023-01-31T09:22:02;49.00;;;46.07;;
7583;SDS011;3833;41.764;26.204;2023-01-31T09:24:29;38.53;;;35.67;;
7583;SDS011;3833;41.764;26.204;2023-01-31T09:26:56;48.60;;;45.60;;
7583;SDS011;3833;41.764;26.204;2023-01-31T09:29:23;49.13;;;46.30;;
7583;SDS011;3833;41.764;26.204;2023-01-31T09:31:51;47.37;;;44.50;;
7583;SDS011;3833;41.764;26.204;2023-01-31T09:34:18;53.80;;;49.87;;
7583;SDS011;3833;41.764;26.204;2023-01-31T09:36:46;61.90;;;57.53;;
7583;SDS011;3833;41.764;26.204;2023-01-31T09:39:13;38.17;;;35.53;;
7583;SDS011;3833;41.764;26.204;2023-01-31T09:41:40;51.70;;;48.57;;
7583;SDS011;3833;41.764;26.204;2023-01-31T09:44:11;56.73;;;53.30;;
7583;SDS011;3833;41.764;26.204;2023-01-31T09:46:45;52.77;;;49.67;;
7583;SDS011;3833;41.764;26.204;2023-01-31T09:49:19;49.63;;;46.63;;
7583;SDS011;3833;41.764;26.204;2023-01-31T09:51:51;48.20;;;45.20;;
7583;SDS011;3833;41.764;26.204;2023-01-31T09:54:23;57.03;;;53.70;;
7583;SDS011;3833;41.764;26.204;2023-01-31T09:56:58;47.87;;;44.83;;
7583;SDS011;3833;41.764;26.204;2023-01-31T09:59:29;60.80;;;56.33;;
7583;SDS011;3833;41.764;26.204;2023-01-31T10:02:09;70.40;;;64.73;;
7583;SDS011;3833;41.764;26.204;2023-01-31T10:04:52;44.10;;;41.47;;
7583;SDS011;3833;41.764;26.204;2023-01-31T10:07:31;52.17;;;49.37;;
7583;SDS011;3833;41.764;26.204;2023-01-31T10:10:02;52.83;;;49.80;;
7583;SDS011;3833;41.764;26.204;2023-01-31T10:12:38;47.93;;;45.10;;
7583;SDS011;3833;41.764;26.204;2023-01-31T10:15:11;46.43;;;43.50;;
7583;SDS011;3833;41.764;26.204;2023-01-31T10:17:44;54.97;;;51.67;;
7583;SDS011;3833;41.764;26.204;2023-01-31T10:20:18;55.10;;;52.00;;
7583;SDS011;3833;41.764;26.204;2023-01-31T10:22:49;55.67;;;52.63;;
7583;SDS011;3833;41.764;26.204;2023-01-31T10:25:24;53.57;;;50.67;;
7583;SDS011;3833;41.764;26.204;2023-01-31T10:27:53;55.43;;;52.17;;
7583;SDS011;3833;41.764;26.204;2023-01-31T10:30:26;53.67;;;50.87;;
7583;SDS011;3833;41.764;26.204;2023-01-31T10:33:09;53.93;;;50.83;;
7583;SDS011;3833;41.764;26.204;2023-01-31T10:35:49;54.67;;;51.57;;
7583;SDS011;3833;41.764;26.204;2023-01-31T10:38:21;55.13;;;51.83;;
7583;SDS011;3833;41.764;26.204;2023-01-31T10:40:54;51.23;;;48.23;;
7583;SDS011;3833;41.764;26.204;2023-01-31T10:43:27;56.93;;;53.63;;
7583;SDS011;3833;41.764;26.204;2023-01-31T10:45:59;53.17;;;50.03;;
7583;SDS011;3833;41.764;26.204;2023-01-31T10:48:27;54.20;;;51.03;;
7583;SDS011;3833;41.764;26.204;2023-01-31T10:50:59;51.47;;;48.57;;
7583;SDS011;3833;41.764;26.204;2023-01-31T10:53:36;55.20;;;52.13;;
7583;SDS011;3833;41.764;26.204;2023-01-31T10:56:15;55.23;;;52.03;;
7583;SDS011;3833;41.764;26.204;2023-01-31T10:58:48;45.13;;;42.07;;
7583;SDS011;3833;41.764;26.204;2023-01-31T11:01:16;50.50;;;47.53;;
7583;SDS011;3833;41.764;26.204;2023-01-31T11:03:44;52.37;;;49.57;;
7583;SDS011;3833;41.764;26.204;2023-01-31T11:06:16;51.30;;;48.50;;
7583;SDS011;3833;41.764;26.204;2023-01-31T11:08:44;51.60;;;48.60;;
7583;SDS011;3833;41.764;26.204;2023-01-31T11:11:13;29.03;;;27.20;;
7583;SDS011;3833;41.764;26.204;2023-01-31T11:13:54;25.37;;;23.57;;
7583;SDS011;3833;41.764;26.204;2023-01-31T11:16:23;40.73;;;38.43;;
7583;SDS011;3833;41.764;26.204;2023-01-31T11:18:51;51.23;;;48.50;;
7583;SDS011;3833;41.764;26.204;2023-01-31T11:21:21;51.80;;;48.83;;
7583;SDS011;3833;41.764;26.204;2023-01-31T11:23:50;53.37;;;50.27;;
7583;SDS011;3833;41.764;26.204;2023-01-31T11:26:28;49.37;;;46.67;;
7583;SDS011;3833;41.764;26.204;2023-01-31T11:28:57;51.33;;;48.53;;
7583;SDS011;3833;41.764;26.204;2023-01-31T11:31:26;50.97;;;48.07;;
7583;SDS011;3833;41.764;26.204;2023-01-31T11:33:56;51.10;;;48.20;;
7583;SDS011;3833;41.764;26.204;2023-01-31T11:36:30;53.13;;;50.00;;
7583;SDS011;3833;41.764;26.204;2023-01-31T11:38:58;48.77;;;46.07;;
7583;SDS011;3833;41.764;26.204;2023-01-31T11:41:29;46.77;;;44.10;;
7583;SDS011;3833;41.764;26.204;2023-01-31T11:44:09;46.87;;;44.37;;
7583;SDS011;3833;41.764;26.204;2023-01-31T11:46:39;51.03;;;48.23;;
7583;SDS011;3833;41.764;26.204;2023-01-31T11:49:12;48.17;;;45.77;;
7583;SDS011;3833;41.764;26.204;2023-01-31T11:51:46;46.47;;;43.87;;
7583;SDS011;3833;41.764;26.204;2023-01-31T11:54:16;46.87;;;44.27;;
7583;SDS011;3833;41.764;26.204;2023-01-31T11:56:45;47.83;;;45.07;;
7583;SDS011;3833;41.764;26.204;2023-01-31T11:59:14;48.40;;;45.60;;
7583;SDS011;3833;41.764;26.204;2023-01-31T12:01:45;46.13;;;43.63;;
7583;SDS011;3833;41.764;26.204;2023-01-31T12:04:15;49.23;;;46.47;;
7583;SDS011;3833;41.764;26.204;2023-01-31T12:06:56;45.60;;;43.13;;
7583;SDS011;3833;41.764;26.204;2023-01-31T12:09:26;48.77;;;46.27;;
7583;SDS011;3833;41.764;26.204;2023-01-31T12:11:58;45.97;;;43.67;;
7583;SDS011;3833;41.764;26.204;2023-01-31T12:14:35;49.77;;;47.17;;
7583;SDS011;3833;41.764;26.204;2023-01-31T12:17:05;46.50;;;44.10;;
7583;SDS011;3833;41.764;26.204;2023-01-31T12:19:41;43.47;;;41.27;;
7583;SDS011;3833;41.764;26.204;2023-01-31T12:22:17;45.77;;;43.47;;
7583;SDS011;3833;41.764;26.204;2023-01-31T12:24:55;47.87;;;45.57;;
7583;SDS011;3833;41.764;26.204;2023-01-31T12:27:33;47.43;;;45.13;;
7583;SDS011;3833;41.764;26.204;2023-01-31T12:30:19;47.77;;;45.37;;
7583;SDS011;3833;41.764;26.204;2023-01-31T12:33:05;48.37;;;45.73;;
7583;SDS011;3833;41.764;26.204;2023-01-31T12:35:47;51.43;;;47.87;;
7583;SDS011;3833;41.764;26.204;2023-01-31T12:38:36;54.20;;;50.57;;
7583;SDS011;3833;41.764;26.204;2023-01-31T12:41:17;47.07;;;44.57;;
7583;SDS011;3833;41.764;26.204;2023-01-31T12:43:53;43.80;;;41.63;;
7583;SDS011;3833;41.764;26.204;2023-01-31T12:46:37;52.07;;;48.73;;
7583;SDS011;3833;41.764;26.204;2023-01-31T12:49:16;49.10;;;46.67;;
7583;SDS011;3833;41.764;26.204;2023-01-31T12:52:02;50.37;;;47.47;;
7583;SDS011;3833;41.764;26.204;2023-01-31T12:54:41;49.83;;;47.10;;
7583;SDS011;3833;41.764;26.204;2023-01-31T12:57:21;55.83;;;52.37;;
7583;SDS011;3833;41.764;26.204;2023-01-31T12:59:55;50.77;;;48.17;;
7583;SDS011;3833;41.764;26.204;2023-01-31T13:02:43;105.27;;;90.67;;
7583;SDS011;3833;41.764;26.204;2023-01-31T13:05:23;45.37;;;42.77;;
7583;SDS011;3833;41.764;26.204;2023-01-31T13:07:54;36.53;;;33.57;;
7583;SDS011;3833;41.764;26.204;2023-01-31T13:10:34;31.43;;;29.17;;
7583;SDS011;3833;41.764;26.204;2023-01-31T13:13:03;48.60;;;46.00;;
7583;SDS011;3833;41.764;26.204;2023-01-31T13:15:37;28.43;;;26.80;;
7583;SDS011;3833;41.764;26.204;2023-01-31T13:18:08;28.03;;;26.23;;
7583;SDS011;3833;41.764;26.204;2023-01-31T13:20:38;44.43;;;42.13;;
7583;SDS011;3833;41.764;26.204;2023-01-31T13:23:10;46.43;;;44.03;;
7583;SDS011;3833;41.764;26.204;2023-01-31T13:25:45;42.67;;;40.40;;
7583;SDS011;3833;41.764;26.204;2023-01-31T13:28:17;48.23;;;45.80;;
7583;SDS011;3833;41.764;26.204;2023-01-31T13:30:49;43.27;;;41.23;;
7583;SDS011;3833;41.764;26.204;2023-01-31T13:33:29;35.43;;;33.63;;
7583;SDS011;3833;41.764;26.204;2023-01-31T13:36:05;47.43;;;45.17;;
7583;SDS011;3833;41.764;26.204;2023-01-31T13:38:41;50.20;;;47.67;;
7583;SDS011;3833;41.764;26.204;2023-01-31T13:41:12;48.00;;;45.50;;
7583;SDS011;3833;41.764;26.204;2023-01-31T13:43:45;47.23;;;44.93;;
7583;SDS011;3833;41.764;26.204;2023-01-31T13:46:12;49.00;;;46.70;;
7583;SDS011;3833;41.764;26.204;2023-01-31T13:48:44;51.37;;;48.67;;
7583;SDS011;3833;41.764;26.204;2023-01-31T13:51:17;52.20;;;49.47;;
7583;SDS011;3833;41.764;26.204;2023-01-31T13:53:49;59.30;;;55.43;;
7583;SDS011;3833;41.764;26.204;2023-01-31T13:56:22;50.60;;;46.93;;
7583;SDS011;3833;41.764;26.204;2023-01-31T13:58:53;46.37;;;43.33;;
7583;SDS011;3833;41.764;26.204;2023-01-31T14:01:21;54.97;;;51.57;;
7583;SDS011;3833;41.764;26.204;2023-01-31T14:09:42;48.43;;;46.10;;
7583;SDS011;3833;41.764;26.204;2023-01-31T14:12:31;48.67;;;46.37;;
7583;SDS011;3833;41.764;26.204;2023-01-31T14:14:59;54.37;;;51.00;;
7583;SDS011;3833;41.764;26.204;2023-01-31T14:20:27;51.17;;;48.53;;
7583;SDS011;3833;41.764;26.204;2023-01-31T14:25:57;52.47;;;49.87;;
7583;SDS011;3833;41.764;26.204;2023-01-31T14:28:25;51.33;;;48.57;;
7583;SDS011;3833;41.764;26.204;2023-01-31T14:30:53;52.23;;;49.63;;
7583;SDS011;3833;41.764;26.204;2023-01-31T14:33:24;48.60;;;46.10;;
7583;SDS011;3833;41.764;26.204;2023-01-31T14:35:59;48.63;;;46.23;;
7583;SDS011;3833;41.764;26.204;2023-01-31T14:39:03;48.00;;;45.60;;
7583;SDS011;3833;41.764;26.204;2023-01-31T14:41:58;47.50;;;45.10;;
7583;SDS011;3833;41.764;26.204;2023-01-31T14:44:46;44.93;;;42.93;;
7583;SDS011;3833;41.764;26.204;2023-01-31T14:47:27;46.13;;;44.03;;
7583;SDS011;3833;41.764;26.204;2023-01-31T14:53:08;46.63;;;44.50;;
7583;SDS011;3833;41.764;26.204;2023-01-31T14:55:56;44.93;;;42.73;;
7583;SDS011;3833;41.764;26.204;2023-01-31T14:58:39;47.67;;;45.47;;
7583;SDS011;3833;41.764;26.204;2023-01-31T15:01:09;50.83;;;48.10;;
7583;SDS011;3833;41.764;26.204;2023-01-31T15:03:37;46.97;;;44.63;;
7583;SDS011;3833;41.764;26.204;2023-01-31T15:06:14;49.97;;;47.27;;
7583;SDS011;3833;41.764;26.204;2023-01-31T15:08:49;47.53;;;45.33;;
7583;SDS011;3833;41.764;26.204;2023-01-31T15:11:39;50.63;;;47.93;;
7583;SDS011;3833;41.764;26.204;2023-01-31T15:17:04;51.67;;;48.33;;
7583;SDS011;3833;41.764;26.204;2023-01-31T15:19:40;54.63;;;50.97;;
7583;SDS011;3833;41.764;26.204;2023-01-31T15:22:10;49.70;;;46.50;;
7583;SDS011;3833;41.764;26.204;2023-01-31T15:24:42;59.13;;;54.90;;